KHVE

Details ICAO KHVE
Name Hanksville Airport
Region United States
Timezone America/Denver (UTC-7.0)
Plans Departing 0
Arriving 7
Stats Elevation 4,443 ft / 1,354 m (AMSL)
Location 38.419414° -110.702422°
Runways 2
Magnetic Variation 10.615° E
Sunrise 2017-12-12 14:32:21 UTC / 2017-12-12 07:32:21 Local
Sunset 2017-12-13 00:03:52 UTC / 2017-12-12 17:03:52 Local
Advertisement - Login to hide

Runways

ID Width Length Bearing (true) Bearing (mag) Surface Threshold Offset Overrun Length
08 75 ft / 23 m 5,681 ft / 1,731 m 97.96° 87.35° Asphalt 600 ft / 183 m 0 ft / 0 m
17 120 ft / 37 m 4,861 ft / 1,482 m 186.06° 175.45° Dirt 0 ft / 0 m 0 ft / 0 m
26 75 ft / 23 m 5,681 ft / 1,731 m 277.97° 267.36° Asphalt 600 ft / 183 m 0 ft / 0 m
35 120 ft / 37 m 4,861 ft / 1,482 m 6.06° 355.45° Dirt 0 ft / 0 m 0 ft / 0 m

Map

Weather


0- 5 10 15 20 25 30 35+ Temperature / ° C

Clouds and Precipitation
Forecast for 2017-12-12 12:00 UTC. Updated an hour ago

Ground ~20,000 ft ~40,000 ft Winds

METAR

KHVE 121235Z AUTO 00000KT 10SM CLR M11/M19 A3056 RMK AO2

TAF

Not found

Frequencies

Recorded 120.00 MHz WX AWOS-3
Unicom 122.80 MHz CTAF/UNICOM
Warning: Do not use this data for real-world aviation or navigation. No guarantee of current accuracy is given.